New York, New York
Traffic Map
Current Weather Conditions
New York, New York
Overcast
Overcast
11°
Feels Like: 11°
Wind Chill: 11° Ceiling: 2000
Heat Index: 11° Visibility: 10mi
Dew Point: Wind: 8mph
Humidity: 80% Direction: 20° (NNE)
Pressure: 29.75in Gusts: 23mph
Raw Report DataKNYC 230551Z AUTO 02007G20KT 320V060 10SM OVC020 11/08 A2975 RMK AO2 SLP063 60044 T01110078 10111 20100 56009 $
Traffic Incident Summary
Active as of:
Severity:
Category:
InformationThere was an issue retrieving the traffic information for this location. Please try a different location or try again shortly.
Advertisements
Track Severe Weather on mobile